createdAt,value
2022-11-24T00:02:25.059Z,9.07
2022-11-24T00:04:51.957Z,7.53
2022-11-24T00:07:18.613Z,10.10
2022-11-24T00:09:45.311Z,9.38
2022-11-24T00:12:12.215Z,9.43
2022-11-24T00:14:38.865Z,8.75
2022-11-24T00:17:05.586Z,8.25
2022-11-24T00:19:32.263Z,8.80
2022-11-24T00:21:58.940Z,9.27
2022-11-24T00:24:25.587Z,8.32
2022-11-24T00:26:52.230Z,7.88
2022-11-24T00:29:18.858Z,8.52
2022-11-24T00:31:45.508Z,9.68
2022-11-24T00:34:14.266Z,8.15
2022-11-24T00:36:41.956Z,8.27
2022-11-24T00:39:12.314Z,8.23
2022-11-24T00:41:39.335Z,9.55
2022-11-24T00:44:06.598Z,9.63
2022-11-24T00:46:33.623Z,9.13
2022-11-24T00:49:00.573Z,8.55
2022-11-24T00:51:30.262Z,7.80
2022-11-24T00:53:58.390Z,8.27
2022-11-24T00:56:26.237Z,7.45
2022-11-24T00:58:53.355Z,8.98
2022-11-24T01:01:26.493Z,8.27
2022-11-24T01:03:55.041Z,8.13
2022-11-24T01:06:24.333Z,8.13
2022-11-24T01:08:51.332Z,8.07
2022-11-24T01:11:19.104Z,8.40
2022-11-24T01:13:48.155Z,9.20
2022-11-24T01:16:26.627Z,9.88
2022-11-24T01:18:53.724Z,8.15
2022-11-24T01:21:21.085Z,7.97
2022-11-24T01:23:47.744Z,7.93
2022-11-24T01:26:17.488Z,9.05
2022-11-24T01:28:47.373Z,8.40
2022-11-24T01:31:15.324Z,8.48
2022-11-24T01:33:42.218Z,8.93
2022-11-24T01:36:08.956Z,8.25
2022-11-24T01:38:35.590Z,7.85
2022-11-24T01:41:14.096Z,8.48
2022-11-24T01:43:42.364Z,9.43
2022-11-24T01:46:15.102Z,8.73
2022-11-24T01:49:04.941Z,7.15
2022-11-24T01:51:35.712Z,7.32
2022-11-24T01:54:11.218Z,8.70
2022-11-24T01:56:41.225Z,7.93
2022-11-24T01:59:11.448Z,9.07
2022-11-24T02:01:38.222Z,8.45
2022-11-24T02:04:08.346Z,8.60
2022-11-24T02:06:36.930Z,8.15
2022-11-24T02:09:14.855Z,7.78
2022-11-24T02:11:42.748Z,7.22
2022-11-24T02:14:13.080Z,8.27
2022-11-24T02:16:42.977Z,8.35
2022-11-24T02:19:18.124Z,8.05
2022-11-24T02:21:44.780Z,8.63
2022-11-24T02:24:24.583Z,7.65
2022-11-24T02:26:52.358Z,8.15
2022-11-24T02:29:20.527Z,8.45
2022-11-24T02:31:55.068Z,9.05
2022-11-24T02:34:21.741Z,8.30
2022-11-24T02:36:48.382Z,7.53
2022-11-24T02:39:15.715Z,8.98
2022-11-24T02:41:46.165Z,7.85
2022-11-24T02:44:15.494Z,8.15
2022-11-24T02:46:42.294Z,7.75
2022-11-24T02:49:09.022Z,7.35
2022-11-24T02:51:35.684Z,6.93
2022-11-24T02:54:02.420Z,7.47
2022-11-24T02:56:29.122Z,8.07
2022-11-24T02:58:55.778Z,8.15
2022-11-24T03:01:22.625Z,8.40
2022-11-24T03:03:49.373Z,7.63
2022-11-24T03:06:16.008Z,7.82
2022-11-24T03:08:42.652Z,7.30
2022-11-24T03:11:09.388Z,7.75
2022-11-24T03:13:36.155Z,6.90
2022-11-24T03:16:02.899Z,8.30
2022-11-24T03:18:29.552Z,6.55
2022-11-24T03:20:59.924Z,7.60
2022-11-24T03:23:26.694Z,7.03
2022-11-24T03:25:53.378Z,7.20
2022-11-24T03:28:20.010Z,6.68
2022-11-24T03:30:49.136Z,7.00
2022-11-24T03:33:15.853Z,6.95
2022-11-24T03:35:42.544Z,6.90
2022-11-24T03:38:09.228Z,5.93
2022-11-24T03:40:35.848Z,5.85
2022-11-24T03:43:02.484Z,7.35
2022-11-24T03:45:46.411Z,6.72
2022-11-24T03:48:15.144Z,6.05
2022-11-24T03:50:41.859Z,7.70
2022-11-24T03:53:08.739Z,6.85
2022-11-24T03:55:35.785Z,7.13
2022-11-24T03:58:02.650Z,6.68
2022-11-24T04:00:29.353Z,6.55
2022-11-24T04:02:56.056Z,5.70
2022-11-24T04:05:22.781Z,6.80
2022-11-24T04:07:49.469Z,6.72
2022-11-24T04:10:16.276Z,5.82
2022-11-24T04:12:45.662Z,6.78
2022-11-24T04:15:17.869Z,6.97
2022-11-24T04:17:45.829Z,6.10
2022-11-24T04:20:13.159Z,6.32
2022-11-24T04:22:39.990Z,5.25
2022-11-24T04:25:07.740Z,6.07
2022-11-24T04:27:35.335Z,6.28
2022-11-24T04:30:02.134Z,5.80
2022-11-24T04:32:28.725Z,7.25
2022-11-24T04:34:55.299Z,7.30
2022-11-24T04:37:21.906Z,6.35
2022-11-24T04:39:48.467Z,6.63
2022-11-24T04:42:15.047Z,7.90
2022-11-24T04:44:41.725Z,6.40
2022-11-24T04:47:15.902Z,5.82
2022-11-24T04:49:42.463Z,6.70
2022-11-24T04:52:09.200Z,6.50
2022-11-24T04:54:36.707Z,6.35
2022-11-24T04:57:03.308Z,7.13
2022-11-24T04:59:30.022Z,6.22
2022-11-24T05:01:56.688Z,6.13
2022-11-24T05:04:23.645Z,5.20
2022-11-24T05:06:50.521Z,6.45
2022-11-24T05:09:17.689Z,6.85
2022-11-24T05:11:44.442Z,6.07
2022-11-24T05:14:11.123Z,5.65
2022-11-24T05:16:38.003Z,6.85
2022-11-24T05:19:04.772Z,6.07
2022-11-24T05:21:31.577Z,6.55
2022-11-24T05:23:58.215Z,5.95
2022-11-24T05:26:25.915Z,7.05
2022-11-24T05:28:52.566Z,6.35
2022-11-24T05:31:19.626Z,6.07
2022-11-24T05:33:46.665Z,7.10
2022-11-24T05:36:33.333Z,6.05
2022-11-24T05:39:00.244Z,6.70
2022-11-24T05:41:26.949Z,7.18
2022-11-24T05:43:53.552Z,5.55
2022-11-24T05:46:20.272Z,6.47
2022-11-24T05:48:46.877Z,5.97
2022-11-24T05:51:13.482Z,6.85
2022-11-24T05:53:40.048Z,5.88
2022-11-24T05:56:07.121Z,5.78
2022-11-24T05:58:33.695Z,6.10
2022-11-24T06:01:00.336Z,5.97
2022-11-24T06:03:26.912Z,6.50
2022-11-24T06:05:53.542Z,6.50
2022-11-24T06:08:20.151Z,7.07
2022-11-24T06:10:46.877Z,6.05
2022-11-24T06:13:13.518Z,5.68
2022-11-24T06:15:40.849Z,6.45
2022-11-24T06:18:07.478Z,6.95
2022-11-24T06:20:34.149Z,7.22
2022-11-24T06:23:01.357Z,6.43
2022-11-24T06:25:28.691Z,6.00
2022-11-24T06:27:55.667Z,6.63
2022-11-24T06:30:22.282Z,5.97
2022-11-24T06:32:49.972Z,5.93
2022-11-24T06:35:16.880Z,6.40
2022-11-24T06:37:43.554Z,7.03
2022-11-24T06:40:10.525Z,6.50
2022-11-24T06:42:37.595Z,7.00
2022-11-24T06:45:10.217Z,5.97
2022-11-24T06:47:37.442Z,7.32
2022-11-24T06:50:04.515Z,7.32
2022-11-24T06:52:31.184Z,6.13
2022-11-24T06:54:57.840Z,6.88
2022-11-24T06:57:24.532Z,6.25
2022-11-24T06:59:51.165Z,7.20
2022-11-24T07:02:17.815Z,7.70
2022-11-24T07:04:44.448Z,5.57
2022-11-24T07:07:11.190Z,8.00
2022-11-24T07:09:37.888Z,6.97
2022-11-24T07:12:05.833Z,8.25
2022-11-24T07:14:33.125Z,7.13
2022-11-24T07:17:02.409Z,8.65
2022-11-24T07:19:29.102Z,6.22
2022-11-24T07:21:55.953Z,7.45
2022-11-24T07:24:22.695Z,9.32
2022-11-24T07:26:49.368Z,8.02
2022-11-24T07:29:16.082Z,7.22
2022-11-24T07:31:42.759Z,7.03
2022-11-24T07:34:09.456Z,5.95
2022-11-24T07:36:36.160Z,6.85
2022-11-24T07:39:02.854Z,7.32
2022-11-24T07:41:29.464Z,7.22
2022-11-24T07:43:56.099Z,7.75
2022-11-24T07:46:22.911Z,6.57
2022-11-24T07:48:49.611Z,7.03
2022-11-24T07:51:16.656Z,6.90
2022-11-24T07:53:43.450Z,6.50
2022-11-24T07:56:10.440Z,6.85
2022-11-24T07:58:37.836Z,7.68
2022-11-24T08:01:16.325Z,6.85
2022-11-24T08:03:44.117Z,6.45
2022-11-24T08:06:30.517Z,7.20
2022-11-24T08:08:58.613Z,6.55
2022-11-24T08:11:25.765Z,7.88
2022-11-24T08:13:52.461Z,7.47
2022-11-24T08:16:20.110Z,6.38
2022-11-24T08:18:52.035Z,7.15
2022-11-24T08:21:19.364Z,6.82
2022-11-24T08:23:46.102Z,7.00
2022-11-24T08:26:16.594Z,6.45
2022-11-24T08:28:44.209Z,5.57
2022-11-24T08:31:13.963Z,5.95
2022-11-24T08:33:41.002Z,5.88
2022-11-24T08:36:15.213Z,6.40
2022-11-24T08:38:42.420Z,5.53
2022-11-24T08:41:11.720Z,6.20
2022-11-24T08:43:38.491Z,5.38
2022-11-24T08:46:08.422Z,6.15
2022-11-24T08:48:35.250Z,6.28
2022-11-24T08:51:13.504Z,6.15
2022-11-24T08:53:41.371Z,6.47
2022-11-24T08:56:08.820Z,5.90
2022-11-24T08:58:36.528Z,6.40
2022-11-24T09:01:12.145Z,6.25
2022-11-24T09:06:11.555Z,6.03
2022-11-24T09:08:38.786Z,5.13
2022-11-24T09:11:12.444Z,7.07
2022-11-24T09:13:39.939Z,6.90
2022-11-24T09:16:09.218Z,5.60
2022-11-24T09:18:36.632Z,5.93
2022-11-24T09:21:18.891Z,5.18
2022-11-24T09:23:50.854Z,5.60
2022-11-24T09:26:24.065Z,4.88
2022-11-24T09:28:54.337Z,5.00
2022-11-24T09:31:23.306Z,4.57
2022-11-24T09:33:49.957Z,4.30
2022-11-24T09:36:16.730Z,4.07
2022-11-24T09:38:43.375Z,4.10
2022-11-24T09:41:43.649Z,4.22
2022-11-24T09:44:31.805Z,4.18
2022-11-24T09:47:32.699Z,4.55
2022-11-24T09:50:04.298Z,4.22
2022-11-24T09:53:03.641Z,3.40
2022-11-24T09:55:38.988Z,3.95
2022-11-24T09:58:18.556Z,3.92
2022-11-24T10:00:48.379Z,3.55
2022-11-24T10:03:45.587Z,3.65
2022-11-24T10:06:21.221Z,3.67
2022-11-24T10:11:38.727Z,4.32
2022-11-24T10:14:24.088Z,3.85
2022-11-24T10:17:04.176Z,4.05
2022-11-24T10:19:47.254Z,4.15
2022-11-24T10:22:28.593Z,6.40
2022-11-24T10:25:13.120Z,5.20
2022-11-24T10:27:57.176Z,5.50
2022-11-24T10:30:24.047Z,4.40
2022-11-24T10:33:01.373Z,4.00
2022-11-24T10:35:50.480Z,4.47
2022-11-24T10:38:20.108Z,4.65
2022-11-24T10:40:59.466Z,4.00
2022-11-24T10:43:28.329Z,4.45
2022-11-24T10:46:15.962Z,4.07
2022-11-24T10:48:53.661Z,4.07
2022-11-24T10:51:34.867Z,4.57
2022-11-24T10:54:09.514Z,4.45
2022-11-24T10:56:41.302Z,4.10
2022-11-24T10:59:35.227Z,4.78
2022-11-24T11:02:02.893Z,3.88
2022-11-24T11:04:34.802Z,5.00
2022-11-24T11:07:09.660Z,5.07
2022-11-24T11:09:36.666Z,5.00
2022-11-24T11:12:42.236Z,5.03
2022-11-24T11:15:16.002Z,5.90
2022-11-24T11:17:44.364Z,6.43
2022-11-24T11:20:22.067Z,5.88
2022-11-24T11:22:50.686Z,6.40
2022-11-24T11:25:29.655Z,5.72
2022-11-24T11:28:31.906Z,5.55
2022-11-24T11:31:19.689Z,6.60
2022-11-24T11:34:03.757Z,7.20
2022-11-24T11:36:32.588Z,11.15
2022-11-24T11:38:59.897Z,7.80
2022-11-24T11:41:32.764Z,10.23
2022-11-24T11:44:11.216Z,7.30
2022-11-24T11:46:38.218Z,7.40
2022-11-24T11:49:05.299Z,7.30
2022-11-24T11:51:44.082Z,7.35
2022-11-24T11:54:42.906Z,6.68
2022-11-24T11:57:27.773Z,7.35
2022-11-24T12:00:17.177Z,7.32
2022-11-24T12:03:19.242Z,6.45
2022-11-24T12:06:19.300Z,7.22
2022-11-24T12:09:23.190Z,7.50
2022-11-24T12:12:15.867Z,7.50
2022-11-24T12:14:45.289Z,6.78
2022-11-24T12:17:30.386Z,6.93
2022-11-24T12:20:18.788Z,6.57
2022-11-24T12:23:20.489Z,6.25
2022-11-24T12:25:47.085Z,6.78
2022-11-24T12:28:57.201Z,19.75
2022-11-24T12:31:55.925Z,6.65
2022-11-24T12:34:54.484Z,6.60
2022-11-24T12:37:38.204Z,7.05
2022-11-24T12:40:28.692Z,8.25
2022-11-24T12:43:19.357Z,7.80
2022-11-24T12:45:56.800Z,8.93
2022-11-24T12:48:41.949Z,10.52
2022-11-24T12:51:22.750Z,9.60
2022-11-24T12:53:52.980Z,9.15
2022-11-24T12:56:25.865Z,8.20
2022-11-24T12:59:20.768Z,9.00
2022-11-24T13:01:56.387Z,7.22
2022-11-24T13:07:21.037Z,6.85
2022-11-24T13:13:13.330Z,8.85
2022-11-24T13:16:34.613Z,6.43
2022-11-24T13:18:43.120Z,8.70
2022-11-24T13:21:31.862Z,7.30
2022-11-24T13:24:00.913Z,8.35
2022-11-24T13:26:44.038Z,7.13
2022-11-24T13:29:38.410Z,7.28
2022-11-24T13:32:05.037Z,6.75
2022-11-24T13:34:40.714Z,8.05
2022-11-24T13:40:11.657Z,6.45
2022-11-24T13:45:43.044Z,7.53
2022-11-24T13:48:22.497Z,7.70
2022-11-24T13:50:58.378Z,5.80
2022-11-24T13:53:48.193Z,8.35
2022-11-24T13:56:17.594Z,6.90
2022-11-24T13:58:54.781Z,7.63
2022-11-24T14:01:36.767Z,6.18
2022-11-24T14:04:32.843Z,7.15
2022-11-24T14:09:44.643Z,6.10
2022-11-24T14:12:22.713Z,5.53
2022-11-24T14:14:55.608Z,7.28
2022-11-24T14:17:28.135Z,6.47
2022-11-24T14:19:56.582Z,6.40
2022-11-24T14:22:27.056Z,6.13
2022-11-24T14:24:58.669Z,6.38
2022-11-24T14:27:39.092Z,5.97
2022-11-24T14:30:14.568Z,6.22
2022-11-24T14:32:52.676Z,7.78
2022-11-24T14:35:28.621Z,6.75
2022-11-24T14:37:55.865Z,6.22
2022-11-24T14:41:13.246Z,6.25
2022-11-24T14:46:10.403Z,5.40
2022-11-24T14:48:58.381Z,6.90
2022-11-24T14:51:29.151Z,6.40
2022-11-24T14:54:02.100Z,6.07
2022-11-24T14:56:35.092Z,6.78
2022-11-24T14:59:02.381Z,6.32
2022-11-24T15:01:32.471Z,5.28
2022-11-24T15:04:39.023Z,6.00
2022-11-24T15:07:21.454Z,6.70
2022-11-24T15:09:48.063Z,6.72
2022-11-24T15:12:28.689Z,6.22
2022-11-24T15:15:00.439Z,6.63
2022-11-24T15:17:29.017Z,5.78
2022-11-24T15:20:09.387Z,6.90
2022-11-24T15:22:41.507Z,6.30
2022-11-24T15:25:40.353Z,6.68
2022-11-24T15:28:08.449Z,6.65
2022-11-24T15:30:36.301Z,5.53
2022-11-24T15:33:03.355Z,6.75
2022-11-24T15:35:32.018Z,6.55
2022-11-24T15:37:59.000Z,7.93
2022-11-24T15:40:25.688Z,6.70
2022-11-24T15:42:54.890Z,7.55
2022-11-24T15:45:24.455Z,6.35
2022-11-24T15:47:51.268Z,6.88
2022-11-24T15:50:18.750Z,6.32
2022-11-24T15:52:47.081Z,6.20
2022-11-24T15:55:19.821Z,6.35
2022-11-24T15:57:46.443Z,7.10
2022-11-24T16:00:21.014Z,7.05
2022-11-24T16:02:48.425Z,6.90
2022-11-24T16:05:16.437Z,6.05
2022-11-24T16:07:44.547Z,6.82
2022-11-24T16:10:30.348Z,7.70
2022-11-24T16:12:57.379Z,7.70
2022-11-24T16:15:24.228Z,6.60
2022-11-24T16:17:50.979Z,6.22
2022-11-24T16:20:17.728Z,6.78
2022-11-24T16:22:44.570Z,6.80
2022-11-24T16:25:12.289Z,7.43
2022-11-24T16:27:38.904Z,7.68
2022-11-24T16:30:07.047Z,6.40
2022-11-24T16:32:34.092Z,10.95
2022-11-24T16:35:00.977Z,9.18
2022-11-24T16:37:27.552Z,8.77
2022-11-24T16:39:54.183Z,8.20
2022-11-24T16:42:20.825Z,7.72
2022-11-24T16:44:47.452Z,9.80
2022-11-24T16:47:14.045Z,8.85
2022-11-24T16:49:40.802Z,7.85
2022-11-24T16:52:08.433Z,10.15
2022-11-24T16:54:35.209Z,8.52
2022-11-24T16:57:02.017Z,8.07
2022-11-24T16:59:28.945Z,7.05
2022-11-24T17:01:55.660Z,7.60
2022-11-24T17:04:22.372Z,7.72
2022-11-24T17:06:49.043Z,8.43
2022-11-24T17:09:16.776Z,9.98
2022-11-24T17:11:43.379Z,7.70
2022-11-24T17:14:11.086Z,8.07
2022-11-24T17:16:38.722Z,7.32
2022-11-24T17:19:05.832Z,9.15
2022-11-24T17:21:32.904Z,9.68
2022-11-24T17:24:02.598Z,9.85
2022-11-24T17:26:29.413Z,10.02
2022-11-24T17:28:56.269Z,10.20
2022-11-24T17:31:39.675Z,9.60
2022-11-24T17:34:07.702Z,8.63
2022-11-24T17:36:35.402Z,8.82
2022-11-24T17:39:09.446Z,7.43
2022-11-24T17:41:36.289Z,9.95
2022-11-24T17:44:03.380Z,10.43
2022-11-24T17:46:31.000Z,9.40
2022-11-24T17:48:58.275Z,8.85
2022-11-24T17:51:26.240Z,8.65
2022-11-24T17:53:54.309Z,9.80
2022-11-24T17:56:23.594Z,8.80
2022-11-24T17:59:00.805Z,10.02
2022-11-24T18:01:29.967Z,7.57
2022-11-24T18:03:56.936Z,9.07
2022-11-24T18:06:27.872Z,8.70
2022-11-24T18:08:57.008Z,9.77
2022-11-24T18:11:31.122Z,8.98
2022-11-24T18:14:02.161Z,8.20
2022-11-24T18:16:34.021Z,9.18
2022-11-24T18:19:11.467Z,9.95
2022-11-24T18:21:40.493Z,8.80
2022-11-24T18:24:09.922Z,8.40
2022-11-24T18:26:37.540Z,7.78
2022-11-24T18:29:04.656Z,9.23
2022-11-24T18:31:32.288Z,9.00
2022-11-24T18:33:59.529Z,7.95
2022-11-24T18:36:30.199Z,8.32
2022-11-24T18:38:59.783Z,8.85
2022-11-24T18:41:27.093Z,14.30
2022-11-24T18:43:53.886Z,16.63
2022-11-24T18:46:20.501Z,16.58
2022-11-24T18:48:47.233Z,9.80
2022-11-24T18:51:16.676Z,10.07
2022-11-24T18:53:45.736Z,9.40
2022-11-24T18:56:16.947Z,10.48
2022-11-24T18:58:44.373Z,9.25
2022-11-24T19:01:16.635Z,10.13
2022-11-24T19:03:48.642Z,8.80
2022-11-24T19:06:28.506Z,10.65
2022-11-24T19:08:55.941Z,9.07
2022-11-24T19:11:24.841Z,8.90
2022-11-24T19:13:51.503Z,8.60
2022-11-24T19:16:19.859Z,9.07
2022-11-24T19:18:53.097Z,8.20
2022-11-24T19:21:20.785Z,7.93
2022-11-24T19:23:47.535Z,10.48
2022-11-24T19:26:14.187Z,8.98
2022-11-24T19:28:40.824Z,8.75
2022-11-24T19:31:10.344Z,8.73
2022-11-24T19:33:36.996Z,9.20
2022-11-24T19:36:10.670Z,8.70
2022-11-24T19:38:37.772Z,8.70
2022-11-24T19:41:09.937Z,8.13
2022-11-24T19:43:36.617Z,8.30
2022-11-24T19:46:12.409Z,8.80
2022-11-24T19:48:41.475Z,8.60
2022-11-24T19:51:11.378Z,8.38
2022-11-24T19:53:38.071Z,8.18
2022-11-24T19:56:16.712Z,7.22
2022-11-24T19:58:43.667Z,8.50
2022-11-24T20:01:13.767Z,7.53
2022-11-24T20:03:41.610Z,7.50
2022-11-24T20:06:09.870Z,7.25
2022-11-24T20:08:38.405Z,7.00
2022-11-24T20:11:08.211Z,8.02
2022-11-24T20:13:36.457Z,6.15
2022-11-24T20:16:04.933Z,9.32
2022-11-24T20:18:36.354Z,14.57
2022-11-24T20:21:10.732Z,9.85
2022-11-24T20:23:38.488Z,9.43
2022-11-24T20:26:19.662Z,8.50
2022-11-24T20:28:47.303Z,8.68
2022-11-24T20:31:17.035Z,5.70
2022-11-24T20:33:44.288Z,6.78
2022-11-24T20:36:16.910Z,7.45
2022-11-24T20:38:44.368Z,6.15
2022-11-24T20:41:12.373Z,5.68
2022-11-24T20:43:40.092Z,6.30
2022-11-24T20:46:16.444Z,5.45
2022-11-24T20:48:43.635Z,6.13
2022-11-24T20:51:20.601Z,7.07
2022-11-24T20:53:47.876Z,6.32
2022-11-24T20:56:17.711Z,6.50
2022-11-24T20:58:44.424Z,5.68
2022-11-24T21:01:14.346Z,6.15
2022-11-24T21:03:43.463Z,7.20
2022-11-24T21:06:11.732Z,5.88
2022-11-24T21:08:40.169Z,6.93
2022-11-24T21:11:09.216Z,5.45
2022-11-24T21:13:37.517Z,8.18
2022-11-24T21:16:22.165Z,6.25
2022-11-24T21:18:51.158Z,5.72
2022-11-24T21:21:19.582Z,6.53
2022-11-24T21:23:47.219Z,6.80
2022-11-24T21:26:17.175Z,6.50
2022-11-24T21:28:45.708Z,6.70
2022-11-24T21:31:18.194Z,6.60
2022-11-24T21:33:50.256Z,6.45
2022-11-24T21:36:19.963Z,6.90
2022-11-24T21:38:51.944Z,5.50
2022-11-24T21:41:19.382Z,7.88
2022-11-24T21:43:46.320Z,6.78
2022-11-24T21:46:13.526Z,5.80
2022-11-24T21:48:41.844Z,7.30
2022-11-24T21:51:19.852Z,5.35
2022-11-24T21:53:47.330Z,6.60
2022-11-24T21:56:17.013Z,6.85
2022-11-24T21:58:48.759Z,5.95
2022-11-24T22:01:17.510Z,6.88
2022-11-24T22:03:44.198Z,6.15
2022-11-24T22:06:11.096Z,7.15
2022-11-24T22:08:38.156Z,6.95
2022-11-24T22:11:13.839Z,6.93
2022-11-24T22:16:12.715Z,7.20
2022-11-24T22:18:41.284Z,6.53
2022-11-24T22:21:11.044Z,7.38
2022-11-24T22:23:37.843Z,6.35
2022-11-24T22:26:14.775Z,6.43
2022-11-24T22:28:41.832Z,6.82
2022-11-24T22:31:12.510Z,6.72
2022-11-24T22:33:39.356Z,6.53
2022-11-24T22:36:06.739Z,7.43
2022-11-24T22:38:34.014Z,7.32
2022-11-24T22:41:09.331Z,7.72
2022-11-24T22:43:38.077Z,7.32
2022-11-24T22:46:11.038Z,7.50
2022-11-24T22:48:38.513Z,7.70
2022-11-24T22:51:07.376Z,6.85
2022-11-24T22:53:34.275Z,7.30
2022-11-24T22:56:06.055Z,7.15
2022-11-24T22:58:33.514Z,6.95
2022-11-24T23:01:11.432Z,7.20
2022-11-24T23:03:39.141Z,6.80
2022-11-24T23:06:08.467Z,7.43
2022-11-24T23:08:36.036Z,7.38
2022-11-24T23:11:07.672Z,7.15
2022-11-24T23:13:34.684Z,6.72
2022-11-24T23:16:13.167Z,6.88
2022-11-24T23:18:40.187Z,8.70
2022-11-24T23:21:27.847Z,6.95
2022-11-24T23:23:54.904Z,6.72
2022-11-24T23:26:39.321Z,7.85
2022-11-24T23:29:07.075Z,6.88
2022-11-24T23:31:34.124Z,6.88
2022-11-24T23:34:04.298Z,7.00
2022-11-24T23:36:31.808Z,7.80
2022-11-24T23:39:11.455Z,7.40
2022-11-24T23:41:38.170Z,7.38
2022-11-24T23:44:04.943Z,8.23
2022-11-24T23:46:32.005Z,7.40
2022-11-24T23:48:58.979Z,6.47
2022-11-24T23:51:31.062Z,6.40
2022-11-24T23:53:59.253Z,6.88
2022-11-24T23:56:28.795Z,8.38
2022-11-24T23:58:55.393Z,6.93
